Time;durP1;ratioP1;P1;durP2;ratioP2;P2;SDS_P1;SDS_P2;PMS_P1;PMS_P2;Temp;Humidity;BMP_temperature;BMP_pressure;BME280_temperature;BME280_humidity;BME280_pressure;Samples;Min_cycle;Max_cycle;Signal;HPM_P1;HPM_P2
2022/12/30 00:04:07;;;;;;;;;;;;;;;20.17;40.05;95497.53;10391133;28;2371;-55
2022/12/30 00:09:07;;;;;;;;;;;;;;;20.14;39.49;95503.31;10399026;28;2451;-52
2022/12/30 00:35:32;;;;;;;;;;;;;;;20.09;39.97;95558.66;10392954;28;2243;-53
2022/12/30 00:40:32;;;;;;;;;;;;;;;20.07;39.83;95569.41;10408532;28;5181;-52
2022/12/30 00:45:32;;;;;;;;;;;;;;;20.05;39.32;95604.97;10387895;28;2254;-53
2022/12/30 00:56:10;;;;;;;;;;;;;;;20.07;39.91;95629.94;10390626;28;2300;-52
2022/12/30 01:01:10;;;;;;;;;;;;;;;20.05;39.97;95641.81;10392558;28;2436;-55
2022/12/30 01:06:11;;;;;;;;;;;;;;;20.02;39.79;95648.41;10389532;28;2342;-52
2022/12/30 01:11:11;;;;;;;;;;;;;;;20.02;40.05;95655.50;10388082;28;2296;-52
2022/12/30 01:16:12;;;;;;;;;;;;;;;20.00;39.96;95666.31;10394200;28;2338;-51
2022/12/30 01:21:12;;;;;;;;;;;;;;;19.98;39.99;95670.25;10387257;28;2389;-53
2022/12/30 01:26:12;;;;;;;;;;;;;;;19.97;39.93;95676.59;10389171;28;2632;-53
2022/12/30 01:31:13;;;;;;;;;;;;;;;19.96;39.69;95685.53;10371740;28;2454;-52
2022/12/30 01:36:13;;;;;;;;;;;;;;;19.92;39.82;95690.56;10389057;28;2343;-54
2022/12/30 01:41:13;;;;;;;;;;;;;;;19.92;39.68;95695.03;10380015;28;5050;-52
2022/12/30 01:46:34;;;;;;;;;;;;;;;19.91;39.91;95693.44;10384999;28;2313;-53
2022/12/30 01:51:34;;;;;;;;;;;;;;;19.89;39.75;95708.72;10386478;28;2258;-53
2022/12/30 01:56:36;;;;;;;;;;;;;;;19.87;39.57;95692.41;10383975;28;2328;-54
2022/12/30 02:01:36;;;;;;;;;;;;;;;19.86;39.58;95696.91;10398574;28;2416;-54
2022/12/30 02:06:55;;;;;;;;;;;;;;;19.86;39.53;95698.75;10378184;28;2367;-52
2022/12/30 02:11:56;;;;;;;;;;;;;;;19.83;39.60;95696.63;10387100;28;2308;-51
2022/12/30 02:16:56;;;;;;;;;;;;;;;19.83;39.52;95691.38;10378015;28;2283;-52
2022/12/30 02:22:06;;;;;;;;;;;;;;;19.82;39.47;95695.88;10387375;28;2321;-54
2022/12/30 02:27:12;;;;;;;;;;;;;;;19.82;39.60;95695.88;10390338;28;2307;-55
2022/12/30 02:32:17;;;;;;;;;;;;;;;19.79;39.15;95699.03;10386987;28;2323;-55
2022/12/30 02:37:34;;;;;;;;;;;;;;;19.80;39.53;95705.09;10388486;28;2267;-55
2022/12/30 02:48:15;;;;;;;;;;;;;;;19.75;39.25;95705.09;10390883;28;2311;-53
2022/12/30 02:53:17;;;;;;;;;;;;;;;19.74;39.55;95704.28;10397068;28;2345;-54
2022/12/30 02:58:17;;;;;;;;;;;;;;;19.74;39.25;95708.78;10389092;28;2560;-55
2022/12/30 03:08:55;;;;;;;;;;;;;;;19.69;38.60;95706.16;10391784;28;2264;-53
2022/12/30 03:14:03;;;;;;;;;;;;;;;19.69;38.86;95711.41;10396988;28;2375;-54
2022/12/30 03:19:05;;;;;;;;;;;;;;;19.68;38.89;95717.75;10415198;28;2272;-54
2022/12/30 03:29:25;;;;;;;;;;;;;;;19.64;38.75;95720.09;10405468;28;2355;-54
2022/12/30 03:34:26;;;;;;;;;;;;;;;19.63;38.67;95733.53;10401183;28;2668;-56
2022/12/30 03:39:36;;;;;;;;;;;;;;;19.62;38.67;95739.88;10401288;28;2300;-56
2022/12/30 03:44:36;;;;;;;;;;;;;;;19.60;38.52;95740.09;10396030;28;4939;-51
2022/12/30 03:49:38;;;;;;;;;;;;;;;19.59;38.27;95733.28;10391371;28;2448;-53
2022/12/30 03:54:38;;;;;;;;;;;;;;;19.57;38.28;95735.41;10393182;28;2322;-52
2022/12/30 03:59:39;;;;;;;;;;;;;;;19.56;38.28;95730.41;10389162;28;2306;-55
2022/12/30 04:04:40;;;;;;;;;;;;;;;19.55;38.23;95734.88;10385221;28;2352;-54
2022/12/30 04:09:40;;;;;;;;;;;;;;;19.54;38.22;95729.91;10393177;28;2359;-52
2022/12/30 04:14:41;;;;;;;;;;;;;;;19.52;38.03;95737.22;10396447;28;2314;-56
2022/12/30 04:19:41;;;;;;;;;;;;;;;19.51;37.83;95733.03;10393364;28;2281;-53
2022/12/30 04:24:41;;;;;;;;;;;;;;;19.49;37.84;95735.94;10397127;28;2423;-54
2022/12/30 04:29:43;;;;;;;;;;;;;;;19.47;37.79;95719.66;10391096;28;2383;-51
2022/12/30 04:34:43;;;;;;;;;;;;;;;19.46;37.47;95732.00;10388906;28;2379;-53
2022/12/30 04:39:43;;;;;;;;;;;;;;;19.45;37.73;95724.38;10386188;28;2363;-52
2022/12/30 04:44:43;;;;;;;;;;;;;;;19.44;37.74;95725.44;10388005;28;5359;-54
2022/12/30 04:49:44;;;;;;;;;;;;;;;19.42;37.70;95715.19;10392624;28;2266;-51
2022/12/30 04:54:44;;;;;;;;;;;;;;;19.41;37.68;95713.59;10389489;28;2650;-53
2022/12/30 04:59:45;;;;;;;;;;;;;;;19.39;37.33;95718.34;10393793;28;2307;-55
2022/12/30 05:04:45;;;;;;;;;;;;;;;19.37;37.43;95715.19;10398503;28;2371;-52
2022/12/30 05:09:45;;;;;;;;;;;;;;;19.37;37.56;95720.44;10387325;28;2243;-54
2022/12/30 05:14:45;;;;;;;;;;;;;;;19.35;37.02;95722.56;10390679;28;2935;-55
2022/12/30 05:19:46;;;;;;;;;;;;;;;19.34;37.39;95726.25;10385877;28;2381;-55
2022/12/30 05:30:05;;;;;;;;;;;;;;;19.33;37.33;95731.75;10386504;28;2316;-53
2022/12/30 05:35:06;;;;;;;;;;;;;;;19.30;37.16;95725.19;10387318;28;2217;-52
2022/12/30 05:40:06;;;;;;;;;;;;;;;19.30;37.18;95725.19;10392468;28;4879;-53
2022/12/30 05:45:07;;;;;;;;;;;;;;;19.28;37.11;95722.03;10385176;28;2415;-53
2022/12/30 05:50:07;;;;;;;;;;;;;;;19.28;36.98;95740.41;10392274;28;2325;-55
2022/12/30 05:55:07;;;;;;;;;;;;;;;19.28;37.11;95742.25;10392836;28;2315;-54
2022/12/30 06:00:08;;;;;;;;;;;;;;;19.26;37.01;95725.97;10382454;28;2232;-54
2022/12/30 06:05:08;;;;;;;;;;;;;;;19.24;37.13;95720.97;10387232;28;2314;-54
2022/12/30 06:10:09;;;;;;;;;;;;;;;19.23;36.96;95718.59;10393158;28;2339;-54
2022/12/30 06:15:09;;;;;;;;;;;;;;;19.23;37.20;95708.88;10388095;28;2274;-55
2022/12/30 06:20:09;;;;;;;;;;;;;;;19.25;36.69;95701.50;10386103;28;2329;-55
2022/12/30 06:25:10;;;;;;;;;;;;;;;19.27;36.62;95703.88;10397054;28;2474;-52
2022/12/30 06:30:10;;;;;;;;;;;;;;;19.29;36.06;95715.69;10390637;28;2337;-54
2022/12/30 06:35:10;;;;;;;;;;;;;;;19.35;35.14;95719.16;10387647;28;2311;-50
2022/12/30 06:40:11;;;;;;;;;;;;;;;19.36;34.83;95718.09;10387583;28;4828;-55
2022/12/30 06:45:11;;;;;;;;;;;;;;;19.40;34.62;95727.00;10387405;28;2330;-52
2022/12/30 06:50:11;;;;;;;;;;;;;;;19.42;34.29;95738.84;10394787;28;2276;-53
2022/12/30 06:55:11;;;;;;;;;;;;;;;19.45;34.31;95738.28;10396056;28;2393;-51
2022/12/30 07:00:12;;;;;;;;;;;;;;;19.49;34.33;95736.72;10401873;28;2291;-54
2022/12/30 07:05:12;;;;;;;;;;;;;;;19.53;34.04;95730.94;10398656;28;2335;-54
2022/12/30 07:10:12;;;;;;;;;;;;;;;19.57;34.23;95729.34;10403483;28;2274;-55
2022/12/30 07:15:13;;;;;;;;;;;;;;;19.59;34.01;95732.50;10397025;28;2323;-55
2022/12/30 07:20:13;;;;;;;;;;;;;;;19.62;33.91;95735.38;10408149;28;2364;-55
2022/12/30 07:25:14;;;;;;;;;;;;;;;19.64;33.88;95724.59;10391936;28;2292;-54
2022/12/30 07:30:14;;;;;;;;;;;;;;;19.66;33.73;95719.88;10387731;28;2326;-53
2022/12/30 07:35:17;;;;;;;;;;;;;;;19.69;33.92;95721.94;10396085;28;2380;-54
2022/12/30 07:40:17;;;;;;;;;;;;;;;19.71;33.39;95728.50;10389378;28;4264;-55
2022/12/30 07:45:17;;;;;;;;;;;;;;;19.74;33.52;95737.72;10371706;28;2436;-54
2022/12/30 07:50:18;;;;;;;;;;;;;;;19.75;33.56;95721.66;10402348;28;2233;-54
2022/12/30 07:55:18;;;;;;;;;;;;;;;19.79;33.79;95719.28;10399403;28;2305;-55
2022/12/30 08:00:18;;;;;;;;;;;;;;;19.82;33.81;95727.44;10397864;28;2295;-55
2022/12/30 08:05:18;;;;;;;;;;;;;;;19.84;33.67;95737.69;10406780;28;2349;-50
2022/12/30 08:10:19;;;;;;;;;;;;;;;19.85;33.88;95747.94;10404306;28;2331;-55
2022/12/30 08:15:19;;;;;;;;;;;;;;;19.89;33.53;95748.16;10401719;28;2349;-53
2022/12/30 08:20:19;;;;;;;;;;;;;;;19.91;33.74;95736.31;10399686;28;2324;-52
2022/12/30 08:25:20;;;;;;;;;;;;;;;19.94;33.74;95729.75;10400544;28;2264;-52
2022/12/30 08:30:20;;;;;;;;;;;;;;;19.98;34.24;95741.31;10389214;28;2379;-54
2022/12/30 08:35:20;;;;;;;;;;;;;;;20.01;33.80;95740.78;10394861;28;2359;-52
2022/12/30 08:40:21;;;;;;;;;;;;;;;20.07;34.64;95735.19;10399799;28;4257;-54
2022/12/30 08:45:21;;;;;;;;;;;;;;;20.09;33.72;95737.59;10392292;28;2379;-55
2022/12/30 08:50:21;;;;;;;;;;;;;;;20.13;35.47;95749.91;10394891;28;2356;-55
2022/12/30 08:55:22;;;;;;;;;;;;;;;20.15;35.19;95753.06;10391880;28;2419;-53
2022/12/30 09:00:22;;;;;;;;;;;;;;;20.17;34.69;95755.44;10397481;28;2460;-51
2022/12/30 09:05:22;;;;;;;;;;;;;;;20.17;34.66;95752.81;10402277;28;2253;-51
2022/12/30 09:10:22;;;;;;;;;;;;;;;20.20;34.39;95749.66;10389826;28;2309;-51
2022/12/30 09:15:23;;;;;;;;;;;;;;;20.24;35.06;95763.84;10389663;28;2343;-52
2022/12/30 09:20:23;;;;;;;;;;;;;;;20.28;35.17;95762.25;10393628;28;2273;-50
2022/12/30 09:25:23;;;;;;;;;;;;;;;20.39;36.23;95755.06;10393419;28;2371;-55
2022/12/30 09:30:23;;;;;;;;;;;;;;;20.41;35.80;95737.97;10386339;28;2307;-50
2022/12/30 09:35:24;;;;;;;;;;;;;;;20.43;36.14;95735.84;10391589;28;2555;-52
2022/12/30 09:40:30;;;;;;;;;;;;;;;20.49;37.08;95732.13;10388280;28;4470;-53
2022/12/30 09:45:41;;;;;;;;;;;;;;;20.53;37.66;95734.97;10389283;28;2328;-48
2022/12/30 09:50:50;;;;;;;;;;;;;;;20.52;37.13;95734.22;10412590;28;2314;-53
2022/12/30 09:55:54;;;;;;;;;;;;;;;20.51;37.47;95721.31;10393729;28;2353;-55
2022/12/30 10:00:54;;;;;;;;;;;;;;;20.49;37.12;95700.50;10397878;28;2384;-54
2022/12/30 10:05:58;;;;;;;;;;;;;;;20.48;37.29;95687.63;10408304;28;2286;-55
2022/12/30 10:11:01;;;;;;;;;;;;;;;20.46;37.23;95681.84;10390761;28;2286;-52
2022/12/30 10:16:14;;;;;;;;;;;;;;;20.43;37.63;95664.75;10393958;28;2488;-55
2022/12/30 10:21:33;;;;;;;;;;;;;;;20.43;38.02;95654.22;10406468;28;2330;-55
2022/12/30 10:26:40;;;;;;;;;;;;;;;20.47;38.27;95642.06;10401736;28;2368;-51
2022/12/30 10:31:40;;;;;;;;;;;;;;;20.46;38.21;95619.47;10399096;28;2368;-55
2022/12/30 10:36:53;;;;;;;;;;;;;;;20.44;38.36;95621.59;10385293;28;2274;-56
2022/12/30 10:42:11;;;;;;;;;;;;;;;20.45;38.50;95609.97;10396937;28;4183;-57
2022/12/30 10:47:15;;;;;;;;;;;;;;;20.42;38.88;95607.91;10400615;28;2421;-53
2022/12/30 10:52:15;;;;;;;;;;;;;;;20.42;38.97;95602.63;10405254;28;2312;-53
2022/12/30 10:57:16;;;;;;;;;;;;;;;20.38;39.14;95588.44;10392873;28;2344;-54
2022/12/30 11:02:17;;;;;;;;;;;;;;;20.37;39.35;95586.06;10406464;28;2457;-54
2022/12/30 11:07:18;;;;;;;;;;;;;;;20.34;39.67;95584.00;10391979;28;2360;-55
2022/12/30 11:17:46;;;;;;;;;;;;;;;20.28;39.83;95557.72;10399984;28;2311;-55
2022/12/30 11:22:46;;;;;;;;;;;;;;;20.26;40.16;95545.88;10393866;28;2325;-55
2022/12/30 11:27:47;;;;;;;;;;;;;;;20.31;39.75;95542.44;10418984;28;2659;-55
2022/12/30 11:32:48;;;;;;;;;;;;;;;20.25;40.07;95529.34;10402729;28;2352;-53
2022/12/30 11:37:48;;;;;;;;;;;;;;;20.26;40.06;95517.72;10399468;28;2286;-56
2022/12/30 11:42:48;;;;;;;;;;;;;;;20.26;40.22;95512.47;10395730;28;4040;-56
2022/12/30 11:47:48;;;;;;;;;;;;;;;20.27;40.27;95511.41;10397064;28;2396;-53
2022/12/30 11:52:53;;;;;;;;;;;;;;;20.25;40.37;95504.84;10413167;28;2270;-54
2022/12/30 11:57:55;;;;;;;;;;;;;;;20.24;40.01;95505.91;10401141;28;2289;-54
2022/12/30 12:02:59;;;;;;;;;;;;;;;20.23;40.36;95496.44;10405555;28;2267;-55
2022/12/30 12:08:04;;;;;;;;;;;;;;;20.21;40.45;95486.22;10395303;28;2648;-55
2022/12/30 12:13:07;;;;;;;;;;;;;;;20.21;40.42;95475.69;10397362;28;2255;-53
2022/12/30 12:18:13;;;;;;;;;;;;;;;20.21;40.42;95473.03;10394563;28;2544;-54
2022/12/30 12:23:25;;;;;;;;;;;;;;;20.19;40.52;95464.66;10389376;28;2627;-54
2022/12/30 12:28:25;;;;;;;;;;;;;;;20.20;40.14;95470.66;10391863;28;2593;-51
2022/12/30 12:33:35;;;;;;;;;;;;;;;20.16;40.38;95465.16;10384973;28;2629;-55
2022/12/30 12:38:35;;;;;;;;;;;;;;;20.14;40.27;95467.28;10384401;28;2565;-52
2022/12/30 12:43:35;;;;;;;;;;;;;;;20.13;40.46;95465.69;10383560;28;4317;-53
2022/12/30 12:48:40;;;;;;;;;;;;;;;20.12;40.27;95477.28;10395942;28;2802;-52
2022/12/30 12:53:45;;;;;;;;;;;;;;;20.12;40.22;95479.13;10405011;28;2587;-53
2022/12/30 12:58:45;;;;;;;;;;;;;;;20.07;40.10;95482.59;10394535;28;2548;-53
2022/12/30 13:03:53;;;;;;;;;;;;;;;20.07;40.13;95477.34;10387460;28;2604;-51
2022/12/30 13:09:01;;;;;;;;;;;;;;;20.05;40.06;95470.78;10413440;28;2603;-53
2022/12/30 13:14:04;;;;;;;;;;;;;;;20.06;40.12;95459.19;10390785;28;2619;-53
2022/12/30 13:19:04;;;;;;;;;;;;;;;20.05;40.05;95466.28;10389953;28;2554;-54
2022/12/30 13:24:05;;;;;;;;;;;;;;;20.07;39.81;95466.81;10403354;28;2594;-53
2022/12/30 13:29:05;;;;;;;;;;;;;;;20.08;39.83;95464.97;10398589;28;2725;-55
2022/12/30 13:34:12;;;;;;;;;;;;;;;20.12;39.53;95447.56;10382855;28;2748;-55
2022/12/30 13:39:21;;;;;;;;;;;;;;;20.13;39.51;95449.16;10390075;28;2534;-53
2022/12/30 13:44:22;;;;;;;;;;;;;;;20.10;39.54;95444.41;10385396;28;4252;-54
2022/12/30 13:49:24;;;;;;;;;;;;;;;20.05;39.89;95436.59;10401046;28;2559;-53
2022/12/30 13:54:24;;;;;;;;;;;;;;;20.01;39.75;95419.78;10387671;28;2541;-52
2022/12/30 13:59:29;;;;;;;;;;;;;;;19.96;39.78;95433.78;10405332;28;2570;-52
2022/12/30 14:04:30;;;;;;;;;;;;;;;19.90;39.88;95421.72;10394031;28;2619;-54
2022/12/30 14:09:35;;;;;;;;;;;;;;;19.85;39.92;95418.34;10391379;28;2569;-54
2022/12/30 14:14:41;;;;;;;;;;;;;;;19.82;39.94;95406.53;10388901;28;2648;-54
2022/12/30 14:19:41;;;;;;;;;;;;;;;19.79;39.73;95408.91;10392657;28;2641;-51
2022/12/30 14:24:41;;;;;;;;;;;;;;;19.75;39.88;95423.69;10388340;28;2607;-54
2022/12/30 14:29:42;;;;;;;;;;;;;;;19.71;39.92;95420.03;10394610;28;2619;-53
2022/12/30 14:34:42;;;;;;;;;;;;;;;19.69;39.58;95415.06;10391056;28;2582;-55
2022/12/30 14:39:43;;;;;;;;;;;;;;;19.69;39.75;95409.00;10390652;28;2664;-53
2022/12/30 14:44:43;;;;;;;;;;;;;;;19.66;39.73;95376.16;10382156;28;4258;-54
2022/12/30 14:49:55;;;;;;;;;;;;;;;19.64;39.76;95377.50;10402463;28;2570;-53
2022/12/30 14:55:14;;;;;;;;;;;;;;;19.63;39.70;95368.03;10403551;28;2651;-52
2022/12/30 15:00:20;;;;;;;;;;;;;;;19.62;39.55;95361.22;10390171;28;3097;-53
2022/12/30 15:05:30;;;;;;;;;;;;;;;19.58;39.57;95357.59;10402019;28;2821;-53
2022/12/30 15:10:48;;;;;;;;;;;;;;;19.56;39.68;95357.84;10396495;28;2568;-53
2022/12/30 15:16:15;;;;;;;;;;;;;;;19.54;39.58;95359.97;10395914;28;2584;-52
2022/12/30 15:21:18;;;;;;;;;;;;;;;19.52;39.47;95356.81;10390244;28;2621;-51
2022/12/30 15:26:19;;;;;;;;;;;;;;;19.51;39.62;95354.47;10389999;28;2565;-54
2022/12/30 15:31:20;;;;;;;;;;;;;;;19.46;39.43;95342.16;10392071;28;2696;-53
2022/12/30 15:36:20;;;;;;;;;;;;;;;19.44;39.50;95342.44;10384017;28;2583;-53
2022/12/30 15:41:22;;;;;;;;;;;;;;;19.44;39.68;95331.13;10395394;28;4278;-53
2022/12/30 15:46:28;;;;;;;;;;;;;;;19.48;39.83;95335.56;10391016;28;2673;-53
2022/12/30 15:51:34;;;;;;;;;;;;;;;19.58;39.78;95341.81;10394503;28;2635;-56
2022/12/30 15:56:35;;;;;;;;;;;;;;;19.76;39.10;95352.44;10396865;28;2549;-54
2022/12/30 16:01:36;;;;;;;;;;;;;;;19.92;38.59;95339.91;10390542;28;2548;-54
2022/12/30 16:06:39;;;;;;;;;;;;;;;20.08;37.78;95349.19;10400525;28;2570;-53
2022/12/30 16:11:48;;;;;;;;;;;;;;;20.22;37.46;95353.53;10400998;28;2641;-52
2022/12/30 16:16:49;;;;;;;;;;;;;;;20.32;37.24;95363.16;10403943;28;2532;-55
2022/12/30 16:21:56;;;;;;;;;;;;;;;20.40;37.30;95381.00;10395602;28;2540;-52
2022/12/30 16:27:00;;;;;;;;;;;;;;;20.50;37.17;95387.97;10410592;28;2549;-52
2022/12/30 16:32:00;;;;;;;;;;;;;;;20.49;37.18;95424.03;10405968;28;2658;-53
2022/12/30 16:37:01;;;;;;;;;;;;;;;20.37;37.21;95443.91;10393157;28;2605;-54
2022/12/30 16:42:01;;;;;;;;;;;;;;;20.32;37.16;95462.41;10414543;28;4281;-52
2022/12/30 16:47:01;;;;;;;;;;;;;;;20.27;37.37;95461.41;10400233;28;2645;-53
2022/12/30 16:52:02;;;;;;;;;;;;;;;20.24;37.20;95472.47;10397019;28;2721;-55
2022/12/30 16:57:02;;;;;;;;;;;;;;;20.22;37.44;95477.22;10397082;28;2538;-54
2022/12/30 17:02:02;;;;;;;;;;;;;;;20.38;37.46;95450.78;10390733;28;2750;-56
2022/12/30 17:07:03;;;;;;;;;;;;;;;20.42;36.39;95464.94;10400470;28;2612;-52
2022/12/30 17:12:04;;;;;;;;;;;;;;;20.31;35.34;95460.84;10390571;28;2601;-54
2022/12/30 17:17:04;;;;;;;;;;;;;;;20.26;35.31;95459.81;10393935;28;2613;-53
2022/12/30 17:22:05;;;;;;;;;;;;;;;20.25;35.32;95453.00;10395273;28;2554;-54
2022/12/30 17:27:06;;;;;;;;;;;;;;;20.33;36.01;95467.41;10398530;28;2688;-51
2022/12/30 17:32:08;;;;;;;;;;;;;;;20.32;35.36;95484.25;10395529;28;2644;-53
2022/12/30 17:37:08;;;;;;;;;;;;;;;20.31;35.15;95495.06;10403959;28;2568;-55
2022/12/30 17:42:08;;;;;;;;;;;;;;;20.38;37.27;95483.13;10396349;28;4372;-52
2022/12/30 17:47:09;;;;;;;;;;;;;;;20.38;35.62;95490.25;10386967;28;2554;-49
2022/12/30 17:52:10;;;;;;;;;;;;;;;20.37;36.35;95492.09;10401889;28;8259;-47
2022/12/30 17:57:10;;;;;;;;;;;;;;;20.37;36.34;95492.09;10379468;28;8326;-50
2022/12/30 18:02:10;;;;;;;;;;;;;;;20.36;36.15;95497.66;10381824;28;8037;-49
2022/12/30 18:07:11;;;;;;;;;;;;;;;20.37;35.85;95497.38;10386943;28;7908;-49
2022/12/30 18:12:12;;;;;;;;;;;;;;;20.38;35.89;95500.78;10381433;28;2725;-52
2022/12/30 18:17:12;;;;;;;;;;;;;;;20.39;35.91;95491.81;10391005;28;5463;-51
2022/12/30 18:22:12;;;;;;;;;;;;;;;20.52;38.55;95496.44;10386094;28;2522;-52
2022/12/30 18:27:13;;;;;;;;;;;;;;;20.55;36.89;95488.75;10393929;28;2677;-50
2022/12/30 18:32:13;;;;;;;;;;;;;;;20.53;36.90;95488.25;10388604;28;7846;-48
2022/12/30 18:37:14;;;;;;;;;;;;;;;20.53;36.63;95485.63;10388298;28;2624;-46
2022/12/30 18:42:14;;;;;;;;;;;;;;;20.61;38.20;95477.09;10397543;28;2542;-47
2022/12/30 18:47:15;;;;;;;;;;;;;;;20.66;38.39;95482.31;10396302;28;2540;-47
2022/12/30 18:52:15;;;;;;;;;;;;;;;20.68;36.76;95467.03;10397919;28;2584;-51
2022/12/30 18:57:15;;;;;;;;;;;;;;;20.78;36.69;95456.38;10394385;28;2657;-53
2022/12/30 19:02:16;;;;;;;;;;;;;;;20.84;37.21;95449.97;10406500;28;2617;-52
2022/12/30 19:07:16;;;;;;;;;;;;;;;20.90;37.26;95454.13;10408925;28;8193;-48
2022/12/30 19:12:16;;;;;;;;;;;;;;;20.92;36.14;95456.47;10400003;28;2699;-47
2022/12/30 19:17:16;;;;;;;;;;;;;;;20.96;36.32;95458.25;10406674;28;2663;-47
2022/12/30 19:22:17;;;;;;;;;;;;;;;20.98;35.70;95455.31;10400819;28;2644;-46
2022/12/30 19:27:17;;;;;;;;;;;;;;;21.00;37.43;95448.72;10409225;28;2629;-51
2022/12/30 19:32:17;;;;;;;;;;;;;;;21.01;36.54;95452.94;10403590;28;2654;-51
2022/12/30 19:37:18;;;;;;;;;;;;;;;21.00;36.47;95454.00;10396971;28;2611;-47
2022/12/30 19:42:18;;;;;;;;;;;;;;;21.00;35.44;95455.81;10399532;28;2693;-50
2022/12/30 19:47:18;;;;;;;;;;;;;;;20.99;34.82;95452.44;10405700;28;2651;-51
2022/12/30 19:52:19;;;;;;;;;;;;;;;21.02;36.29;95449.25;10403156;28;2973;-50
2022/12/30 19:57:19;;;;;;;;;;;;;;;21.01;36.01;95445.03;10406449;28;2602;-49
2022/12/30 20:02:19;;;;;;;;;;;;;;;20.99;34.95;95446.38;10393566;28;2587;-50
2022/12/30 20:07:19;;;;;;;;;;;;;;;20.99;35.88;95451.63;10405232;28;2637;-52
2022/12/30 20:12:20;;;;;;;;;;;;;;;21.00;35.00;95451.34;10398808;28;2629;-48
2022/12/30 20:17:20;;;;;;;;;;;;;;;20.97;34.69;95457.19;10401255;28;2589;-50
2022/12/30 20:22:20;;;;;;;;;;;;;;;20.96;34.33;95457.47;10396948;28;2569;-50
2022/12/30 20:27:20;;;;;;;;;;;;;;;21.00;35.10;95474.28;10407394;28;2701;-50
2022/12/30 20:32:21;;;;;;;;;;;;;;;20.97;34.20;95478.28;10404127;28;2655;-48
2022/12/30 20:37:21;;;;;;;;;;;;;;;20.92;34.21;95470.44;10402894;28;2670;-48
2022/12/30 20:42:21;;;;;;;;;;;;;;;20.92;34.07;95473.06;10396660;28;2558;-47
2022/12/30 20:47:22;;;;;;;;;;;;;;;20.94;34.04;95473.56;10396641;28;2684;-49
2022/12/30 20:52:22;;;;;;;;;;;;;;;20.92;34.29;95477.53;10401466;28;2597;-48
2022/12/30 20:57:22;;;;;;;;;;;;;;;20.94;34.58;95475.41;10401106;28;2978;-51
2022/12/30 21:02:22;;;;;;;;;;;;;;;20.92;33.75;95470.44;10388734;28;2647;-48
2022/12/30 21:07:23;;;;;;;;;;;;;;;20.91;33.95;95479.41;10388533;28;6008;-50
2022/12/30 21:12:23;;;;;;;;;;;;;;;20.90;34.70;95472.56;10402567;28;2659;-47
2022/12/30 21:17:23;;;;;;;;;;;;;;;20.92;34.12;95475.69;10394066;28;2903;-49
2022/12/30 21:22:23;;;;;;;;;;;;;;;20.88;33.64;95476.53;10403039;28;2584;-52
2022/12/30 21:27:24;;;;;;;;;;;;;;;20.93;34.62;95490.44;10399216;28;2570;-49
2022/12/30 21:32:24;;;;;;;;;;;;;;;20.79;34.17;95496.69;10392685;28;2717;-52
2022/12/30 21:37:24;;;;;;;;;;;;;;;20.72;33.97;95499.63;10401741;28;2550;-48
2022/12/30 22:03:40;;;;;;;;;;;;;;;20.60;35.49;95522.16;10395079;28;2632;-47
2022/12/30 22:08:40;;;;;;;;;;;;;;;20.52;35.42;95534.09;10402969;28;6274;-46
2022/12/30 22:13:42;;;;;;;;;;;;;;;20.47;35.25;95534.13;10396649;28;2633;-46
2022/12/30 22:18:42;;;;;;;;;;;;;;;20.51;35.63;95524.59;10422250;28;2540;-48
2022/12/30 22:23:42;;;;;;;;;;;;;;;20.52;35.70;95531.47;10410520;28;2624;-49
2022/12/30 22:28:42;;;;;;;;;;;;;;;20.47;35.67;95538.59;10417476;28;2613;-50
2022/12/30 22:33:43;;;;;;;;;;;;;;;20.48;36.92;95553.34;10415731;28;2692;-47
2022/12/30 22:38:43;;;;;;;;;;;;;;;20.40;36.52;95573.16;10405879;28;2564;-51
2022/12/30 22:43:43;;;;;;;;;;;;;;;20.35;36.64;95578.47;10409794;28;2566;-46
2022/12/30 22:48:43;;;;;;;;;;;;;;;20.34;37.04;95592.66;10408465;28;2688;-52
2022/12/30 22:53:44;;;;;;;;;;;;;;;20.26;36.96;95601.94;10407150;28;2730;-48
2022/12/30 22:58:44;;;;;;;;;;;;;;;20.23;37.04;95612.25;10406061;28;2607;-49
2022/12/30 23:03:44;;;;;;;;;;;;;;;20.20;37.07;95605.69;10400067;28;2667;-50
2022/12/30 23:08:44;;;;;;;;;;;;;;;20.21;37.91;95598.59;10404522;28;6210;-47
2022/12/30 23:19:04;;;;;;;;;;;;;;;20.15;38.34;95620.72;10407976;28;2561;-48
2022/12/30 23:29:24;;;;;;;;;;;;;;;20.07;38.20;95627.31;10396851;28;2585;-49
2022/12/30 23:34:24;;;;;;;;;;;;;;;20.05;38.37;95624.16;10395289;28;2634;-47
2022/12/30 23:39:24;;;;;;;;;;;;;;;20.04;38.60;95634.97;10391806;28;2574;-46
2022/12/30 23:44:25;;;;;;;;;;;;;;;20.03;38.34;95638.69;10400825;28;2579;-49
2022/12/30 23:49:25;;;;;;;;;;;;;;;20.00;38.64;95636.56;10402889;28;2601;-46
2022/12/30 23:54:25;;;;;;;;;;;;;;;19.99;38.62;95637.66;10394238;28;2758;-47
2022/12/30 23:59:27;;;;;;;;;;;;;;;19.95;38.74;95634.75;10397894;28;2559;-47
